Погода Масафина неделю

Фуджейра, ОАЭ

28 февраля-05 марта
  • 28февраля
    Сегодня
    +21°
    +30°
    Практически безоблачно
    ВремяПогодаТемператураВлажностьДавлениеВетер, м/сВероятность осадков
    01:00Ясно и безоблачно+21°C82 %760 мм2.0 м/с2 %
    04:00Ясно и безоблачно+20°C79 %760 мм1.1 м/с2 %
    07:00Практически безоблачно+20°C87 %760 мм0.7 м/с2 %
    10:00Ясно и безоблачно+26°C73 %761 мм1.9 м/с2 %
    13:00Практически безоблачно+29°C59 %760 мм1.6 м/с2 %
    16:00Практически безоблачно+28°C61 %759 мм2.1 м/с2 %
    19:00Ясно и безоблачно+25°C73 %760 мм2.3 м/с2 %
    22:00Небольшая облачность+23°C80 %760 мм1.1 м/с2 %
  • 29февраля
    Четверг
    +19°
    +29°
    Небольшая облачность
    ВремяПогодаТемператураВлажностьДавлениеВетер, м/сВероятность осадков
    01:00Облачно с прояснениями+22°C83 %759 мм1.6 м/с2 %
    04:00Пасмурно, сплошная облачность+22°C86 %758 мм2.0 м/с10 %
    07:00Небольшая облачность+21°C68 %759 мм2.7 м/с21 %
    10:00Облачно с прояснениями+25°C56 %760 мм4.9 м/с22 %
    13:00Небольшая облачность+28°C48 %759 мм5.0 м/с21 %
    16:00Ясно и безоблачно+27°C44 %758 мм7.8 м/с4 %
    19:00Ясно и безоблачно+24°C56 %759 мм6.9 м/с1 %
    22:00Ясно и безоблачно+21°C70 %760 мм7.1 м/с2 %
  • 01марта
    Пятница
    +16°
    +26°
    Практически безоблачно
    ВремяПогодаТемператураВлажностьДавлениеВетер, м/сВероятность осадков
    01:00Ясно и безоблачно+20°C71 %760 мм7.3 м/с2 %
    04:00Практически безоблачно+20°C71 %760 мм6.5 м/с2 %
    07:00Ясно и безоблачно+19°C69 %761 мм4.7 м/с2 %
    10:00Ясно и безоблачно+24°C41 %762 мм5.9 м/с2 %
    13:00Практически безоблачно+25°C54 %762 мм7.0 м/с4 %
    16:00Практически безоблачно+24°C47 %761 мм5.9 м/с9 %
    19:00Ясно и безоблачно+21°C49 %763 мм4.8 м/с4 %
    22:00Ясно и безоблачно+20°C48 %765 мм2.7 м/с2 %
  • 02марта
    Суббота
    +15°
    +24°
    Пасмурно, сплошная облачность
    ВремяПогодаТемператураВлажностьДавлениеВетер, м/сВероятность осадков
    01:00Ясно и безоблачно+17°C55 %765 мм1.8 м/с2 %
    04:00Практически безоблачно+18°C61 %764 мм1.0 м/с3 %
    07:00Небольшая облачность+16°C71 %765 мм2.6 м/с9 %
    10:00Облачно с прояснениями+23°C47 %766 мм2.7 м/с9 %
    13:00Пасмурно, сплошная облачность+24°C53 %765 мм4.3 м/с11 %
    16:00Небольшая облачность+24°C53 %764 мм4.3 м/с6 %
    19:00Ясно и безоблачно+20°C59 %764 мм2.8 м/с3 %
    22:00Ясно и безоблачно+19°C68 %765 мм3.0 м/с2 %
  • 03марта
    Воскресенье
    +18°
    +26°
    Ясно и безоблачно
    ВремяПогодаТемператураВлажностьДавлениеВетер, м/сВероятность осадков
    01:00Ясно и безоблачно+18°C75 %764 мм2.7 м/с2 %
    04:00Ясно и безоблачно+17°C74 %763 мм2.2 м/с2 %
    07:00Ясно и безоблачно+16°C76 %764 мм2.3 м/с2 %
    10:00Ясно и безоблачно+23°C61 %765 мм2.3 м/с2 %
    13:00Ясно и безоблачно+25°C56 %763 мм3.4 м/с2 %
    16:00Практически безоблачно+25°C55 %762 мм3.4 м/с2 %
    19:00Ясно и безоблачно+22°C61 %762 мм3.1 м/с2 %
    22:00Ясно и безоблачно+21°C65 %763 мм3.1 м/с2 %
Мы используем cookies
Соглашаюсь